Time;durP1;ratioP1;P1;durP2;ratioP2;P2;SDS_P1;SDS_P2;PMS_P1;PMS_P2;Temp;Humidity;BMP_temperature;BMP_pressure;BME280_temperature;BME280_humidity;BME280_pressure;Samples;Min_cycle;Max_cycle;Signal;HPM_P1;HPM_P2
2024/01/03 00:00:41;;;;;;;0.20;0.20;;;;;;;;;;2017855;29;20032;-61
2024/01/03 00:01:42;;;;;;;1.13;0.22;;;;;;;;;;2026158;29;20025;-62
2024/01/03 00:02:44;;;;;;;0.30;0.20;;;;;;;;;;2025359;29;20047;-61
2024/01/03 00:03:44;;;;;;;0.40;0.13;;;;;;;;;;2025919;29;20041;-61
2024/01/03 00:04:45;;;;;;;0.10;0.10;;;;;;;;;;2025572;29;20059;-61
2024/01/03 00:05:46;;;;;;;0.50;0.32;;;;;;;;;;2026040;29;20397;-61
2024/01/03 00:06:48;;;;;;;0.20;0.10;;;;;;;;;;2026134;29;20037;-61
2024/01/03 00:07:49;;;;;;;0.30;0.20;;;;;;;;;;2026049;29;20044;-59
2024/01/03 00:08:50;;;;;;;0.82;0.20;;;;;;;;;;2025658;29;20479;-61
2024/01/03 00:09:55;;;;;;;0.32;0.20;;;;;;;;;;2026100;29;20057;-61
2024/01/03 00:10:56;;;;;;;0.45;0.10;;;;;;;;;;2025568;29;20434;-61
2024/01/03 00:11:57;;;;;;;0.93;0.17;;;;;;;;;;2026018;29;20033;-61
2024/01/03 00:12:58;;;;;;;0.15;0.15;;;;;;;;;;2017942;29;20052;-61
2024/01/03 00:14:05;;;;;;;0.50;0.32;;;;;;;;;;2017821;29;20065;-60
2024/01/03 00:15:32;;;;;;;0.25;0.20;;;;;;;;;;2025351;29;20045;-61
2024/01/03 00:16:33;;;;;;;1.55;0.30;;;;;;;;;;2011088;29;20046;-61
2024/01/03 00:17:33;;;;;;;0.20;0.20;;;;;;;;;;2017142;29;20425;-61
2024/01/03 00:18:35;;;;;;;1.13;0.57;;;;;;;;;;2017156;29;20048;-61
2024/01/03 00:19:37;;;;;;;1.77;0.30;;;;;;;;;;2026203;29;20032;-62
2024/01/03 00:20:38;;;;;;;0.50;0.25;;;;;;;;;;2024897;29;20052;-61
2024/01/03 00:21:38;;;;;;;0.15;0.15;;;;;;;;;;2025456;29;20431;-61
2024/01/03 00:22:40;;;;;;;0.28;0.20;;;;;;;;;;2026396;29;20040;-61
2024/01/03 00:23:47;;;;;;;0.10;0.10;;;;;;;;;;2025172;29;20040;-61
2024/01/03 00:24:48;;;;;;;0.10;0.10;;;;;;;;;;2027662;29;20497;-60
2024/01/03 00:25:49;;;;;;;0.52;0.20;;;;;;;;;;2028545;29;20032;-61
2024/01/03 00:26:50;;;;;;;0.25;0.17;;;;;;;;;;2028855;29;20032;-60
2024/01/03 00:27:50;;;;;;;0.30;0.20;;;;;;;;;;2028057;29;20095;-61
2024/01/03 00:28:52;;;;;;;0.03;0.03;;;;;;;;;;2020245;29;20509;-60
2024/01/03 00:29:53;;;;;;;0.93;0.10;;;;;;;;;;2020303;29;20068;-61
2024/01/03 00:30:53;;;;;;;0.10;0.10;;;;;;;;;;2027972;29;20045;-61
2024/01/03 00:31:54;;;;;;;0.20;0.10;;;;;;;;;;2027496;29;20048;-60
2024/01/03 00:32:55;;;;;;;0.15;0.10;;;;;;;;;;2028118;29;20508;-60
2024/01/03 00:33:57;;;;;;;0.10;0.10;;;;;;;;;;2020196;29;20064;-60
2024/01/03 00:34:58;;;;;;;0.20;0.15;;;;;;;;;;2020320;29;20033;-61
2024/01/03 00:35:58;;;;;;;0.52;0.20;;;;;;;;;;2019661;29;20071;-59
2024/01/03 00:36:59;;;;;;;0.47;0.13;;;;;;;;;;2012608;29;20419;-61
2024/01/03 00:38:00;;;;;;;0.10;0.05;;;;;;;;;;2020263;29;20033;-59
2024/01/03 00:39:01;;;;;;;0.10;0.10;;;;;;;;;;2028099;29;20044;-61
2024/01/03 00:40:02;;;;;;;0.20;0.10;;;;;;;;;;2020244;29;20029;-59
2024/01/03 00:41:03;;;;;;;0.10;0.10;;;;;;;;;;2012715;29;20090;-59
2024/01/03 00:42:04;;;;;;;0.45;0.10;;;;;;;;;;2012625;29;20530;-60
2024/01/03 00:43:05;;;;;;;0.20;0.10;;;;;;;;;;2019676;29;20073;-60
2024/01/03 00:44:05;;;;;;;0.47;0.30;;;;;;;;;;2028408;29;20036;-60
2024/01/03 00:45:06;;;;;;;0.13;0.10;;;;;;;;;;2028656;29;20037;-61
2024/01/03 00:46:08;;;;;;;0.63;0.20;;;;;;;;;;2028537;29;20035;-60
2024/01/03 00:47:08;;;;;;;0.10;0.10;;;;;;;;;;2020030;29;20041;-59
2024/01/03 00:48:09;;;;;;;0.10;0.10;;;;;;;;;;2020275;29;20037;-60
2024/01/03 00:49:10;;;;;;;0.10;0.10;;;;;;;;;;2028012;29;20434;-60
2024/01/03 00:50:11;;;;;;;1.00;0.20;;;;;;;;;;2028580;29;20044;-60
2024/01/03 00:51:12;;;;;;;0.50;0.20;;;;;;;;;;2028570;29;20024;-60
2024/01/03 00:52:13;;;;;;;0.20;0.20;;;;;;;;;;2027044;29;20072;-60
2024/01/03 00:53:13;;;;;;;0.13;0.10;;;;;;;;;;2020258;29;20104;-61
2024/01/03 00:54:14;;;;;;;0.13;0.10;;;;;;;;;;2020316;29;20136;-61
2024/01/03 00:55:15;;;;;;;1.35;0.10;;;;;;;;;;2011929;29;20470;-61
2024/01/03 00:56:16;;;;;;;0.20;0.17;;;;;;;;;;2011967;29;20049;-60
2024/01/03 00:57:16;;;;;;;1.08;0.20;;;;;;;;;;2028541;29;20036;-60
2024/01/03 00:58:17;;;;;;;0.75;0.30;;;;;;;;;;2019380;29;20470;-60
2024/01/03 00:59:18;;;;;;;0.63;0.50;;;;;;;;;;2020201;29;20041;-61
2024/01/03 01:00:19;;;;;;;1.35;0.15;;;;;;;;;;2019817;29;20071;-61
2024/01/03 01:01:19;;;;;;;0.30;0.10;;;;;;;;;;2027027;29;20076;-61
2024/01/03 01:02:20;;;;;;;0.00;0.00;;;;;;;;;;2026889;29;20033;-60
2024/01/03 01:03:21;;;;;;;0.70;0.20;;;;;;;;;;2020248;29;20053;-61
2024/01/03 01:04:21;;;;;;;0.10;0.10;;;;;;;;;;2012568;29;20033;-61
2024/01/03 01:05:23;;;;;;;0.77;0.15;;;;;;;;;;2020130;29;20052;-61
2024/01/03 01:06:23;;;;;;;0.55;0.20;;;;;;;;;;2020753;29;20470;-60
2024/01/03 01:07:24;;;;;;;1.00;0.20;;;;;;;;;;2019954;29;20517;-60
2024/01/03 01:08:25;;;;;;;0.25;0.17;;;;;;;;;;2012005;29;20076;-60
2024/01/03 01:09:26;;;;;;;0.20;0.10;;;;;;;;;;2019779;29;20056;-60
2024/01/03 01:10:27;;;;;;;0.47;0.20;;;;;;;;;;2027973;29;20045;-61
2024/01/03 01:11:27;;;;;;;0.50;0.15;;;;;;;;;;2027926;29;20048;-61
2024/01/03 01:12:28;;;;;;;1.65;0.30;;;;;;;;;;2020736;29;20028;-61
2024/01/03 01:13:29;;;;;;;0.10;0.10;;;;;;;;;;2020196;29;20402;-61
2024/01/03 01:14:29;;;;;;;0.73;0.20;;;;;;;;;;2020116;29;20039;-61
2024/01/03 01:15:30;;;;;;;0.10;0.10;;;;;;;;;;2020386;29;20053;-61
2024/01/03 01:16:31;;;;;;;1.05;0.10;;;;;;;;;;2020706;29;20057;-61
2024/01/03 01:17:32;;;;;;;0.60;0.20;;;;;;;;;;2020142;29;20045;-61
2024/01/03 01:18:32;;;;;;;0.20;0.20;;;;;;;;;;2020627;29;20029;-61
2024/01/03 01:19:33;;;;;;;0.98;0.22;;;;;;;;;;2020704;29;20158;-61
2024/01/03 01:20:34;;;;;;;0.43;0.10;;;;;;;;;;2020792;29;20033;-61
2024/01/03 01:21:35;;;;;;;0.75;0.10;;;;;;;;;;2020742;29;20044;-61
2024/01/03 01:22:36;;;;;;;0.30;0.22;;;;;;;;;;2020072;29;20048;-61
2024/01/03 01:23:38;;;;;;;0.13;0.10;;;;;;;;;;2020122;29;20057;-61
2024/01/03 01:24:39;;;;;;;0.47;0.22;;;;;;;;;;2020761;29;20044;-61
2024/01/03 01:25:39;;;;;;;0.28;0.20;;;;;;;;;;2020493;29;20045;-61
2024/01/03 01:26:40;;;;;;;0.32;0.20;;;;;;;;;;2020439;29;20045;-61
2024/01/03 01:27:41;;;;;;;0.10;0.10;;;;;;;;;;2020724;29;20546;-60
2024/01/03 01:28:41;;;;;;;0.28;0.17;;;;;;;;;;2020079;29;20474;-61
2024/01/03 01:29:42;;;;;;;0.43;0.15;;;;;;;;;;2019830;29;20053;-61
2024/01/03 01:30:43;;;;;;;0.20;0.10;;;;;;;;;;2020389;29;20049;-61
2024/01/03 01:31:44;;;;;;;0.20;0.17;;;;;;;;;;2020491;29;20049;-61
2024/01/03 01:32:44;;;;;;;0.30;0.10;;;;;;;;;;2020787;29;20033;-61
2024/01/03 01:33:45;;;;;;;0.43;0.13;;;;;;;;;;2019523;29;20060;-61
2024/01/03 01:34:46;;;;;;;1.58;0.20;;;;;;;;;;2012828;29;20061;-61
2024/01/03 01:35:47;;;;;;;1.45;0.20;;;;;;;;;;2018540;29;20065;-61
2024/01/03 01:36:47;;;;;;;2.08;0.28;;;;;;;;;;2018807;29;20505;-61
2024/01/03 01:37:48;;;;;;;1.13;0.20;;;;;;;;;;2019475;29;20073;-61
2024/01/03 01:38:49;;;;;;;0.20;0.10;;;;;;;;;;2019370;29;20048;-61
2024/01/03 01:39:50;;;;;;;0.17;0.17;;;;;;;;;;2018872;29;20037;-61
2024/01/03 01:40:50;;;;;;;0.45;0.35;;;;;;;;;;2019131;29;20037;-61
2024/01/03 01:41:51;;;;;;;0.10;0.10;;;;;;;;;;2019433;29;20397;-61
2024/01/03 01:42:52;;;;;;;0.35;0.20;;;;;;;;;;2018312;29;20497;-60
2024/01/03 01:43:53;;;;;;;0.30;0.15;;;;;;;;;;2018596;29;20048;-61
2024/01/03 01:44:54;;;;;;;1.23;0.30;;;;;;;;;;2019350;29;20059;-61
2024/01/03 01:45:55;;;;;;;0.82;0.60;;;;;;;;;;2018468;29;20505;-62
2024/01/03 01:46:55;;;;;;;0.15;0.10;;;;;;;;;;2018413;29;20041;-61
2024/01/03 01:47:56;;;;;;;0.63;0.30;;;;;;;;;;2019037;29;20041;-62
2024/01/03 01:48:57;;;;;;;0.30;0.15;;;;;;;;;;2017979;29;20089;-61
2024/01/03 01:49:57;;;;;;;0.20;0.10;;;;;;;;;;2010976;29;20038;-61
2024/01/03 01:50:58;;;;;;;0.25;0.20;;;;;;;;;;2018718;29;20080;-61
2024/01/03 01:51:59;;;;;;;0.80;0.08;;;;;;;;;;2019071;29;20379;-61
2024/01/03 01:53:00;;;;;;;0.73;0.45;;;;;;;;;;2018791;29;20088;-61
2024/01/03 01:54:01;;;;;;;0.20;0.10;;;;;;;;;;2018706;29;20409;-61
2024/01/03 01:55:02;;;;;;;0.60;0.20;;;;;;;;;;2011035;29;20045;-61
2024/01/03 01:56:03;;;;;;;0.10;0.10;;;;;;;;;;1995790;29;20053;-60
2024/01/03 01:57:04;;;;;;;0.85;0.40;;;;;;;;;;2011333;29;20060;-60
2024/01/03 01:58:05;;;;;;;0.17;0.17;;;;;;;;;;2018134;29;20068;-60
2024/01/03 01:59:06;;;;;;;0.05;0.05;;;;;;;;;;2010996;29;20037;-61
2024/01/03 02:00:07;;;;;;;0.25;0.10;;;;;;;;;;2010755;29;20101;-61
2024/01/03 02:01:13;;;;;;;0.40;0.10;;;;;;;;;;2018516;29;20493;-61
2024/01/03 02:02:14;;;;;;;0.88;0.10;;;;;;;;;;2011010;29;20049;-61
2024/01/03 02:03:14;;;;;;;0.10;0.10;;;;;;;;;;2017920;29;20478;-61
2024/01/03 02:04:15;;;;;;;0.20;0.20;;;;;;;;;;2019340;29;20553;-61
2024/01/03 02:05:17;;;;;;;0.52;0.20;;;;;;;;;;2018957;29;20482;-61
2024/01/03 02:06:18;;;;;;;0.38;0.10;;;;;;;;;;2019292;29;20029;-61
2024/01/03 02:07:18;;;;;;;0.77;0.20;;;;;;;;;;2019027;29;20037;-61
2024/01/03 02:08:19;;;;;;;0.30;0.20;;;;;;;;;;2018681;29;20140;-61
2024/01/03 02:09:20;;;;;;;0.20;0.10;;;;;;;;;;2010683;29;20077;-61
2024/01/03 02:10:20;;;;;;;0.10;0.10;;;;;;;;;;2018660;29;20402;-61
2024/01/03 02:11:21;;;;;;;0.98;0.20;;;;;;;;;;2010488;29;20049;-62
2024/01/03 02:12:25;;;;;;;0.13;0.13;;;;;;;;;;2011007;29;20110;-61
2024/01/03 02:13:26;;;;;;;0.05;0.00;;;;;;;;;;2018670;29;20037;-60
2024/01/03 02:14:27;;;;;;;0.63;0.05;;;;;;;;;;2018619;29;20060;-61
2024/01/03 02:15:27;;;;;;;0.82;0.20;;;;;;;;;;2019199;29;20037;-61
2024/01/03 02:16:28;;;;;;;0.30;0.20;;;;;;;;;;2017880;29;20128;-61
2024/01/03 02:17:29;;;;;;;1.33;0.30;;;;;;;;;;2010891;29;20064;-61
2024/01/03 02:18:30;;;;;;;0.32;0.17;;;;;;;;;;2003042;29;20483;-61
2024/01/03 02:19:31;;;;;;;0.00;0.00;;;;;;;;;;2002927;29;20054;-61
2024/01/03 02:20:33;;;;;;;0.28;0.10;;;;;;;;;;2018660;29;20059;-61
2024/01/03 02:21:33;;;;;;;1.55;0.10;;;;;;;;;;2019165;29;20502;-61
2024/01/03 02:22:34;;;;;;;0.28;0.17;;;;;;;;;;2019321;29;20017;-61
2024/01/03 02:23:35;;;;;;;0.10;0.10;;;;;;;;;;2018538;29;20052;-61
2024/01/03 02:24:35;;;;;;;1.27;0.20;;;;;;;;;;2019379;29;20093;-61
2024/01/03 02:25:36;;;;;;;0.13;0.13;;;;;;;;;;2018877;29;20033;-61
2024/01/03 02:26:37;;;;;;;0.10;0.10;;;;;;;;;;2018563;29;20462;-61
2024/01/03 02:27:39;;;;;;;0.17;0.10;;;;;;;;;;2017968;29;20045;-61
2024/01/03 02:28:39;;;;;;;0.25;0.10;;;;;;;;;;2018608;29;20105;-62
2024/01/03 02:29:40;;;;;;;0.20;0.20;;;;;;;;;;2020376;29;20421;-62
2024/01/03 02:30:44;;;;;;;0.47;0.20;;;;;;;;;;2020151;29;20045;-63
2024/01/03 02:31:45;;;;;;;0.25;0.10;;;;;;;;;;2020396;29;20402;-66
2024/01/03 02:32:46;;;;;;;0.10;0.10;;;;;;;;;;2020506;29;20037;-62
2024/01/03 02:33:46;;;;;;;0.20;0.20;;;;;;;;;;2019592;29;20045;-61
2024/01/03 02:34:47;;;;;;;0.52;0.10;;;;;;;;;;2019430;29;20048;-62
2024/01/03 02:35:48;;;;;;;0.90;0.30;;;;;;;;;;2019587;29;20053;-62
2024/01/03 02:36:49;;;;;;;0.10;0.10;;;;;;;;;;2019478;29;20490;-62
2024/01/03 02:37:50;;;;;;;1.05;0.15;;;;;;;;;;2025942;29;20048;-61
2024/01/03 02:38:51;;;;;;;0.05;0.05;;;;;;;;;;2026278;29;20473;-61
2024/01/03 02:39:52;;;;;;;0.25;0.17;;;;;;;;;;2018272;29;20041;-61
2024/01/03 02:40:53;;;;;;;0.57;0.30;;;;;;;;;;2018189;29;20045;-61
2024/01/03 02:41:53;;;;;;;0.20;0.20;;;;;;;;;;2019075;29;20068;-61
2024/01/03 02:42:54;;;;;;;0.32;0.10;;;;;;;;;;2018899;29;20032;-61
2024/01/03 02:43:55;;;;;;;0.45;0.20;;;;;;;;;;2019012;29;20033;-61
2024/01/03 02:44:55;;;;;;;0.47;0.20;;;;;;;;;;2019130;29;20044;-62
2024/01/03 02:45:56;;;;;;;2.10;0.28;;;;;;;;;;2018660;29;20418;-61
2024/01/03 02:46:57;;;;;;;0.20;0.20;;;;;;;;;;2018470;29;20041;-61
2024/01/03 02:47:57;;;;;;;0.17;0.15;;;;;;;;;;2018425;29;20040;-61
2024/01/03 02:48:58;;;;;;;1.65;0.15;;;;;;;;;;2019039;29;20060;-61
2024/01/03 02:49:59;;;;;;;0.05;0.05;;;;;;;;;;2019442;29;20049;-59
2024/01/03 02:51:00;;;;;;;0.10;0.10;;;;;;;;;;2019192;29;20045;-61
2024/01/03 02:52:00;;;;;;;0.08;0.08;;;;;;;;;;2018684;29;20053;-61
2024/01/03 02:53:01;;;;;;;0.70;0.20;;;;;;;;;;2018376;29;20045;-62
2024/01/03 02:54:02;;;;;;;0.47;0.22;;;;;;;;;;2018322;29;20056;-60
2024/01/03 02:55:03;;;;;;;0.30;0.10;;;;;;;;;;2018896;29;20088;-60
2024/01/03 02:56:04;;;;;;;0.30;0.13;;;;;;;;;;2018890;29;20122;-61
2024/01/03 02:57:05;;;;;;;0.30;0.10;;;;;;;;;;2018733;29;20068;-61
2024/01/03 02:58:05;;;;;;;0.08;0.05;;;;;;;;;;2018700;29;20045;-61
2024/01/03 02:59:06;;;;;;;0.03;0.00;;;;;;;;;;2018997;29;20036;-61
2024/01/03 03:00:10;;;;;;;0.10;0.10;;;;;;;;;;2018561;29;20445;-61
2024/01/03 03:01:10;;;;;;;0.75;0.40;;;;;;;;;;2018038;29;20367;-61
2024/01/03 03:02:11;;;;;;;0.15;0.13;;;;;;;;;;2018346;29;20041;-60
2024/01/03 03:03:12;;;;;;;0.30;0.13;;;;;;;;;;2025019;29;20413;-61
2024/01/03 03:04:12;;;;;;;0.38;0.20;;;;;;;;;;2026537;29;20032;-60
2024/01/03 03:05:14;;;;;;;0.63;0.20;;;;;;;;;;2026369;29;20040;-61
2024/01/03 03:06:14;;;;;;;0.08;0.08;;;;;;;;;;2026434;29;20049;-61
2024/01/03 03:07:15;;;;;;;0.30;0.15;;;;;;;;;;2026105;29;20044;-61
2024/01/03 03:08:16;;;;;;;0.10;0.10;;;;;;;;;;2026549;29;20036;-61
2024/01/03 03:09:16;;;;;;;0.50;0.20;;;;;;;;;;2026521;29;20037;-61
2024/01/03 03:10:17;;;;;;;0.10;0.10;;;;;;;;;;2026447;29;20489;-60
2024/01/03 03:11:18;;;;;;;0.20;0.10;;;;;;;;;;2026801;29;20029;-61
2024/01/03 03:12:19;;;;;;;1.42;0.15;;;;;;;;;;2025759;29;20041;-61
2024/01/03 03:13:20;;;;;;;0.10;0.05;;;;;;;;;;2026636;29;20040;-60
2024/01/03 03:14:21;;;;;;;1.85;0.25;;;;;;;;;;2026518;29;20068;-61
2024/01/03 03:15:22;;;;;;;0.10;0.10;;;;;;;;;;2026511;29;20033;-61
2024/01/03 03:16:22;;;;;;;0.70;0.15;;;;;;;;;;2025545;29;20478;-61
2024/01/03 03:17:23;;;;;;;0.73;0.10;;;;;;;;;;2025659;29;20044;-61
2024/01/03 03:18:24;;;;;;;1.30;0.20;;;;;;;;;;2025935;29;20048;-61
2024/01/03 03:19:25;;;;;;;0.77;0.20;;;;;;;;;;2026353;29;20033;-60
2024/01/03 03:20:25;;;;;;;0.10;0.10;;;;;;;;;;2026409;29;20028;-61
2024/01/03 03:21:26;;;;;;;0.28;0.08;;;;;;;;;;2025951;29;20052;-61
2024/01/03 03:22:27;;;;;;;0.20;0.20;;;;;;;;;;2026410;29;20039;-62
2024/01/03 03:23:27;;;;;;;0.10;0.10;;;;;;;;;;2025554;29;20397;-60
2024/01/03 03:24:28;;;;;;;0.10;0.10;;;;;;;;;;2026355;29;20036;-61
2024/01/03 03:25:29;;;;;;;0.90;0.20;;;;;;;;;;2026475;29;20048;-62
2024/01/03 03:26:29;;;;;;;0.10;0.10;;;;;;;;;;2026338;29;20036;-61
2024/01/03 03:27:30;;;;;;;0.30;0.10;;;;;;;;;;2026500;29;20132;-61
2024/01/03 03:28:31;;;;;;;0.52;0.20;;;;;;;;;;2026314;29;20044;-62
2024/01/03 03:29:32;;;;;;;0.38;0.10;;;;;;;;;;2026300;29;20044;-62
2024/01/03 03:30:34;;;;;;;0.00;0.00;;;;;;;;;;2026520;29;20492;-62
2024/01/03 03:31:35;;;;;;;0.35;0.20;;;;;;;;;;2026112;29;20044;-62
2024/01/03 03:32:36;;;;;;;0.15;0.10;;;;;;;;;;2026293;29;20461;-62
2024/01/03 03:33:37;;;;;;;0.25;0.10;;;;;;;;;;2025776;29;20048;-65
2024/01/03 03:34:38;;;;;;;0.60;0.15;;;;;;;;;;2025764;29;20040;-63
2024/01/03 03:35:39;;;;;;;0.63;0.50;;;;;;;;;;2026245;29;20036;-62
2024/01/03 03:36:40;;;;;;;0.60;0.30;;;;;;;;;;2025651;29;20051;-61
2024/01/03 03:37:40;;;;;;;2.05;0.40;;;;;;;;;;2026272;29;20489;-61
2024/01/03 03:38:41;;;;;;;0.10;0.10;;;;;;;;;;2026388;29;20037;-62
2024/01/03 03:39:42;;;;;;;1.10;0.10;;;;;;;;;;2025443;29;20044;-61
2024/01/03 03:40:42;;;;;;;0.60;0.20;;;;;;;;;;2025941;29;20044;-61
2024/01/03 03:41:43;;;;;;;0.28;0.05;;;;;;;;;;2026334;29;20033;-61
2024/01/03 03:42:45;;;;;;;0.32;0.20;;;;;;;;;;2026196;29;20402;-61
2024/01/03 03:43:45;;;;;;;0.10;0.10;;;;;;;;;;2025906;29;20045;-59
2024/01/03 03:44:46;;;;;;;0.75;0.20;;;;;;;;;;2026456;29;20390;-61
2024/01/03 03:45:47;;;;;;;0.30;0.10;;;;;;;;;;2026268;29;20043;-61
2024/01/03 03:46:48;;;;;;;0.03;0.03;;;;;;;;;;2025720;29;20051;-61
2024/01/03 03:47:48;;;;;;;2.17;0.28;;;;;;;;;;2025779;29;20044;-61
2024/01/03 03:48:49;;;;;;;0.63;0.20;;;;;;;;;;2026376;29;20119;-61
2024/01/03 03:49:50;;;;;;;0.60;0.30;;;;;;;;;;2026210;29;20401;-62
2024/01/03 03:50:51;;;;;;;0.85;0.20;;;;;;;;;;2026231;29;20032;-61
2024/01/03 03:51:51;;;;;;;0.52;0.20;;;;;;;;;;2026116;29;20071;-61
2024/01/03 03:52:52;;;;;;;0.40;0.20;;;;;;;;;;2025976;29;20064;-61
2024/01/03 03:53:53;;;;;;;0.10;0.10;;;;;;;;;;2025634;29;20059;-61
2024/01/03 03:54:53;;;;;;;0.38;0.20;;;;;;;;;;2026159;29;20045;-61
2024/01/03 03:55:54;;;;;;;0.30;0.15;;;;;;;;;;2025259;29;20402;-61
2024/01/03 03:56:55;;;;;;;0.35;0.10;;;;;;;;;;2025851;29;20048;-61
2024/01/03 03:57:56;;;;;;;0.10;0.10;;;;;;;;;;2026173;29;20072;-61
2024/01/03 03:58:56;;;;;;;0.13;0.13;;;;;;;;;;2025036;29;20049;-61
2024/01/03 03:59:57;;;;;;;0.57;0.20;;;;;;;;;;2026025;29;20110;-62
2024/01/03 04:00:58;;;;;;;2.72;0.45;;;;;;;;;;2026075;29;20041;-61
2024/01/03 04:01:58;;;;;;;0.95;0.20;;;;;;;;;;2026057;29;20048;-61
2024/01/03 04:02:59;;;;;;;0.88;0.30;;;;;;;;;;2026065;29;20061;-61
2024/01/03 04:04:00;;;;;;;0.60;0.43;;;;;;;;;;2025311;29;20056;-61
2024/01/03 04:05:01;;;;;;;0.52;0.30;;;;;;;;;;2024829;29;20068;-61
2024/01/03 04:06:01;;;;;;;1.05;0.45;;;;;;;;;;2025516;29;20032;-61
2024/01/03 04:07:02;;;;;;;1.75;0.20;;;;;;;;;;2026168;29;20453;-61
2024/01/03 04:08:03;;;;;;;0.52;0.20;;;;;;;;;;2026152;29;20041;-61
2024/01/03 04:09:04;;;;;;;0.30;0.20;;;;;;;;;;2026091;29;20037;-61
2024/01/03 04:10:05;;;;;;;0.15;0.10;;;;;;;;;;2025541;29;20040;-61
2024/01/03 04:11:05;;;;;;;1.80;0.50;;;;;;;;;;2025230;29;20461;-61
2024/01/03 04:12:07;;;;;;;1.50;0.75;;;;;;;;;;2025512;29;20052;-61
2024/01/03 04:13:08;;;;;;;0.50;0.22;;;;;;;;;;2026131;29;20044;-61
2024/01/03 04:14:09;;;;;;;0.25;0.22;;;;;;;;;;2026093;29;20048;-61
2024/01/03 04:15:10;;;;;;;1.50;0.20;;;;;;;;;;2026001;29;20037;-61
2024/01/03 04:16:11;;;;;;;0.32;0.20;;;;;;;;;;2026493;29;20040;-61
2024/01/03 04:17:11;;;;;;;0.17;0.17;;;;;;;;;;2025527;29;20056;-61
2024/01/03 04:18:12;;;;;;;0.57;0.30;;;;;;;;;;2025937;29;20044;-60
2024/01/03 04:19:13;;;;;;;0.13;0.13;;;;;;;;;;2025211;29;20520;-61
2024/01/03 04:20:14;;;;;;;0.63;0.20;;;;;;;;;;2025891;29;20059;-61
2024/01/03 04:21:14;;;;;;;0.70;0.20;;;;;;;;;;2026038;29;20040;-62
2024/01/03 04:22:15;;;;;;;1.50;0.30;;;;;;;;;;2026112;29;20029;-60
2024/01/03 04:23:16;;;;;;;0.73;0.22;;;;;;;;;;2025077;29;20044;-61
2024/01/03 04:24:16;;;;;;;0.88;0.35;;;;;;;;;;2025621;29;20473;-61
2024/01/03 04:25:17;;;;;;;0.38;0.28;;;;;;;;;;2025666;29;20048;-61
2024/01/03 04:26:18;;;;;;;0.88;0.25;;;;;;;;;;2026230;29;20043;-61
2024/01/03 04:27:19;;;;;;;0.70;0.20;;;;;;;;;;2026247;29;20092;-61
2024/01/03 04:28:19;;;;;;;0.77;0.50;;;;;;;;;;2026211;29;20401;-61
2024/01/03 04:29:20;;;;;;;1.45;0.25;;;;;;;;;;2026208;29;20485;-61
2024/01/03 04:30:21;;;;;;;0.88;0.50;;;;;;;;;;2026041;29;20040;-61
2024/01/03 04:31:21;;;;;;;1.73;0.25;;;;;;;;;;2026065;29;20044;-62
2024/01/03 04:32:22;;;;;;;0.93;0.40;;;;;;;;;;2025976;29;20049;-61
2024/01/03 04:33:23;;;;;;;0.68;0.30;;;;;;;;;;2025734;29;20045;-61
2024/01/03 04:34:24;;;;;;;0.22;0.20;;;;;;;;;;2025502;29;20036;-61
2024/01/03 04:35:24;;;;;;;0.32;0.30;;;;;;;;;;2025429;29;20045;-60
2024/01/03 04:36:25;;;;;;;0.98;0.20;;;;;;;;;;2026023;29;20513;-62
2024/01/03 04:37:26;;;;;;;0.88;0.30;;;;;;;;;;2026100;29;20049;-62
2024/01/03 04:38:27;;;;;;;0.30;0.22;;;;;;;;;;2026125;29;20051;-61
2024/01/03 04:39:28;;;;;;;0.77;0.30;;;;;;;;;;2025981;29;20040;-61
2024/01/03 04:40:29;;;;;;;0.20;0.13;;;;;;;;;;2025902;29;20397;-62
2024/01/03 04:41:30;;;;;;;0.65;0.40;;;;;;;;;;2025867;29;20032;-61
2024/01/03 04:42:31;;;;;;;0.55;0.20;;;;;;;;;;2026197;29;20469;-61
2024/01/03 04:43:31;;;;;;;1.08;0.20;;;;;;;;;;2026174;29;20035;-61
2024/01/03 04:44:34;;;;;;;0.60;0.30;;;;;;;;;;2026059;29;20037;-61
2024/01/03 04:45:35;;;;;;;0.15;0.10;;;;;;;;;;2025471;29;20053;-61
2024/01/03 04:46:36;;;;;;;0.47;0.20;;;;;;;;;;2025884;29;20045;-61
2024/01/03 04:47:37;;;;;;;0.10;0.10;;;;;;;;;;2025979;29;20029;-60
2024/01/03 04:48:38;;;;;;;0.98;0.28;;;;;;;;;;2025866;29;20037;-61
2024/01/03 04:49:38;;;;;;;0.30;0.20;;;;;;;;;;2025211;29;20048;-61
2024/01/03 04:50:39;;;;;;;0.10;0.10;;;;;;;;;;2025952;29;20049;-62
2024/01/03 04:51:40;;;;;;;1.23;0.28;;;;;;;;;;2025516;29;20080;-62
2024/01/03 04:52:41;;;;;;;0.20;0.20;;;;;;;;;;2025018;29;20048;-61
2024/01/03 04:53:41;;;;;;;1.58;0.38;;;;;;;;;;2016972;29;20383;-62
2024/01/03 04:54:42;;;;;;;0.82;0.20;;;;;;;;;;2017638;29;20044;-61
2024/01/03 04:55:43;;;;;;;0.70;0.20;;;;;;;;;;2025925;29;20032;-62
2024/01/03 04:56:43;;;;;;;0.50;0.13;;;;;;;;;;2025248;29;20059;-62
2024/01/03 04:57:44;;;;;;;0.17;0.17;;;;;;;;;;2025975;29;20044;-62
2024/01/03 04:58:45;;;;;;;1.27;0.40;;;;;;;;;;2025840;29;20041;-60
2024/01/03 04:59:46;;;;;;;0.90;0.30;;;;;;;;;;2025892;29;20493;-61
2024/01/03 05:00:46;;;;;;;0.70;0.20;;;;;;;;;;2017384;29;20037;-61
2024/01/03 05:01:47;;;;;;;1.00;0.35;;;;;;;;;;2017341;29;20132;-61
2024/01/03 05:02:48;;;;;;;0.68;0.15;;;;;;;;;;2025451;29;20087;-60
2024/01/03 05:03:49;;;;;;;0.40;0.20;;;;;;;;;;2025723;29;20398;-61
2024/01/03 05:04:49;;;;;;;0.10;0.10;;;;;;;;;;2025700;29;20496;-61
2024/01/03 05:05:50;;;;;;;0.20;0.20;;;;;;;;;;2025586;29;20079;-61
2024/01/03 05:06:51;;;;;;;0.40;0.20;;;;;;;;;;2025320;29;20051;-60
2024/01/03 05:07:54;;;;;;;0.20;0.10;;;;;;;;;;2025954;29;20044;-61
2024/01/03 05:08:54;;;;;;;0.80;0.10;;;;;;;;;;2025546;29;20045;-62
2024/01/03 05:09:55;;;;;;;0.32;0.20;;;;;;;;;;2025593;29;20044;-61
2024/01/03 05:10:56;;;;;;;0.43;0.10;;;;;;;;;;2026894;29;20029;-61
2024/01/03 05:11:56;;;;;;;1.15;0.10;;;;;;;;;;2026900;29;20052;-62
2024/01/03 05:12:57;;;;;;;0.63;0.10;;;;;;;;;;2027349;29;20037;-61
2024/01/03 05:13:58;;;;;;;0.03;0.03;;;;;;;;;;2026775;29;20048;-62
2024/01/03 05:14:58;;;;;;;0.38;0.20;;;;;;;;;;2026802;29;20405;-61
2024/01/03 05:15:59;;;;;;;0.70;0.20;;;;;;;;;;2027563;29;20505;-62
2024/01/03 05:17:00;;;;;;;1.63;0.20;;;;;;;;;;2026679;29;20056;-61
2024/01/03 05:18:01;;;;;;;0.10;0.10;;;;;;;;;;2026537;29;20048;-62
2024/01/03 05:19:01;;;;;;;0.10;0.10;;;;;;;;;;2026947;29;20136;-61
2024/01/03 05:20:04;;;;;;;0.25;0.10;;;;;;;;;;2027264;29;20036;-61
2024/01/03 05:21:06;;;;;;;0.85;0.10;;;;;;;;;;2027332;29;20047;-61
2024/01/03 05:22:07;;;;;;;0.05;0.00;;;;;;;;;;2026862;29;20049;-61
2024/01/03 05:23:07;;;;;;;0.10;0.10;;;;;;;;;;2027292;29;20037;-61
2024/01/03 05:24:08;;;;;;;0.43;0.03;;;;;;;;;;2026444;29;20048;-62
2024/01/03 05:25:09;;;;;;;0.10;0.10;;;;;;;;;;2027286;29;20037;-61
2024/01/03 05:26:10;;;;;;;0.10;0.10;;;;;;;;;;2026344;29;20076;-61
2024/01/03 05:27:11;;;;;;;0.13;0.13;;;;;;;;;;2026727;29;20056;-61
2024/01/03 05:28:11;;;;;;;1.65;0.10;;;;;;;;;;2027270;29;20040;-61
2024/01/03 05:29:12;;;;;;;0.00;0.00;;;;;;;;;;2027216;29;20409;-61
2024/01/03 05:30:13;;;;;;;0.63;0.20;;;;;;;;;;2026696;29;20055;-61
2024/01/03 05:31:14;;;;;;;0.70;0.20;;;;;;;;;;2026312;29;20100;-61
2024/01/03 05:32:15;;;;;;;0.22;0.10;;;;;;;;;;2027204;29;20128;-61
2024/01/03 05:33:15;;;;;;;0.00;0.00;;;;;;;;;;2026589;29;20056;-61
2024/01/03 05:34:16;;;;;;;0.55;0.10;;;;;;;;;;2027398;29;20504;-60
2024/01/03 05:35:17;;;;;;;0.75;0.20;;;;;;;;;;2026845;29;20037;-61
2024/01/03 05:36:17;;;;;;;0.17;0.10;;;;;;;;;;2027195;29;20036;-61
2024/01/03 05:37:18;;;;;;;0.22;0.20;;;;;;;;;;2026285;29;20047;-60
2024/01/03 05:38:20;;;;;;;0.10;0.10;;;;;;;;;;2027385;29;20037;-61
2024/01/03 05:39:21;;;;;;;0.60;0.10;;;;;;;;;;2027186;29;20049;-60
2024/01/03 05:40:22;;;;;;;0.15;0.00;;;;;;;;;;2027269;29;20048;-61
2024/01/03 05:41:23;;;;;;;0.32;0.10;;;;;;;;;;2027360;29;20400;-61
2024/01/03 05:42:23;;;;;;;1.08;0.15;;;;;;;;;;2027295;29;20057;-61
2024/01/03 05:43:24;;;;;;;0.32;0.10;;;;;;;;;;2026602;29;20040;-60
2024/01/03 05:44:25;;;;;;;0.47;0.20;;;;;;;;;;2027396;29;20028;-61
2024/01/03 05:45:26;;;;;;;0.00;0.00;;;;;;;;;;2027186;29;20461;-61
2024/01/03 05:46:27;;;;;;;0.17;0.05;;;;;;;;;;2026161;29;20044;-61
2024/01/03 05:47:27;;;;;;;0.00;0.00;;;;;;;;;;2026305;29;20131;-61
2024/01/03 05:48:28;;;;;;;0.10;0.08;;;;;;;;;;2028101;29;20060;-62
2024/01/03 05:49:29;;;;;;;0.10;0.10;;;;;;;;;;2027753;29;20044;-62
2024/01/03 05:50:29;;;;;;;0.10;0.10;;;;;;;;;;2027946;29;20140;-63
2024/01/03 05:51:31;;;;;;;0.00;0.00;;;;;;;;;;2027889;29;20044;-61
2024/01/03 05:52:31;;;;;;;1.20;0.10;;;;;;;;;;2028194;29;20036;-61
2024/01/03 05:53:32;;;;;;;0.55;0.10;;;;;;;;;;2027388;29;20393;-61
2024/01/03 05:54:33;;;;;;;0.20;0.10;;;;;;;;;;2027231;29;20489;-61
2024/01/03 05:55:33;;;;;;;0.10;0.10;;;;;;;;;;2027046;29;20025;-62
2024/01/03 05:56:34;;;;;;;0.10;0.00;;;;;;;;;;2026428;29;20044;-62
2024/01/03 05:57:35;;;;;;;0.20;0.10;;;;;;;;;;2027097;29;20040;-62
2024/01/03 05:58:35;;;;;;;0.10;0.10;;;;;;;;;;2027166;29;20032;-61
2024/01/03 05:59:38;;;;;;;0.10;0.10;;;;;;;;;;2027055;29;20385;-61
2024/01/03 06:00:39;;;;;;;0.43;0.20;;;;;;;;;;2026918;29;20096;-61
2024/01/03 06:01:39;;;;;;;0.20;0.10;;;;;;;;;;2026977;29;20036;-61
2024/01/03 06:02:40;;;;;;;0.00;0.00;;;;;;;;;;2026811;29;20045;-61
2024/01/03 06:03:41;;;;;;;0.22;0.10;;;;;;;;;;2026998;29;20041;-61
2024/01/03 06:04:41;;;;;;;0.20;0.00;;;;;;;;;;2027048;29;20037;-62
2024/01/03 06:05:42;;;;;;;0.32;0.10;;;;;;;;;;2026984;29;20040;-61